sensor_id;sensor_type;location;lat;lon;timestamp;pressure;altitude;pressure_sealevel;temperature;humidity
27425;BME280;15244;49.088;11.886;2023-02-13T00:04:07;97733.47;;;6.80;53.53
27425;BME280;15244;49.088;11.886;2023-02-13T00:09:10;97733.59;;;6.75;53.03
27425;BME280;15244;49.088;11.886;2023-02-13T00:14:11;97732.94;;;6.69;53.04
27425;BME280;15244;49.088;11.886;2023-02-13T00:19:15;97736.56;;;6.64;53.45
27425;BME280;15244;49.088;11.886;2023-02-13T00:24:19;97732.06;;;6.60;53.23
27425;BME280;15244;49.088;11.886;2023-02-13T00:29:21;97733.78;;;6.56;53.57
27425;BME280;15244;49.088;11.886;2023-02-13T00:34:28;97738.22;;;6.51;53.53
27425;BME280;15244;49.088;11.886;2023-02-13T00:39:30;97738.66;;;6.45;53.29
27425;BME280;15244;49.088;11.886;2023-02-13T00:44:34;97727.94;;;6.40;53.55
27425;BME280;15244;49.088;11.886;2023-02-13T00:49:36;97734.25;;;6.35;53.24
27425;BME280;15244;49.088;11.886;2023-02-13T00:54:37;97737.09;;;6.30;53.39
27425;BME280;15244;49.088;11.886;2023-02-13T00:59:39;97733.72;;;6.24;53.09
27425;BME280;15244;49.088;11.886;2023-02-13T01:04:44;97731.91;;;6.20;53.30
27425;BME280;15244;49.088;11.886;2023-02-13T01:09:48;97734.72;;;6.15;53.38
27425;BME280;15244;49.088;11.886;2023-02-13T01:14:52;97736.16;;;6.12;53.27
27425;BME280;15244;49.088;11.886;2023-02-13T01:19:56;97737.06;;;6.07;53.44
27425;BME280;15244;49.088;11.886;2023-02-13T01:24:58;97718.22;;;6.02;53.44
27425;BME280;15244;49.088;11.886;2023-02-13T01:30:09;97718.94;;;5.94;53.34
27425;BME280;15244;49.088;11.886;2023-02-13T01:35:16;97723.94;;;5.87;53.22
27425;BME280;15244;49.088;11.886;2023-02-13T01:40:22;97713.22;;;5.82;53.62
27425;BME280;15244;49.088;11.886;2023-02-13T01:45:30;97719.56;;;5.77;53.57
27425;BME280;15244;49.088;11.886;2023-02-13T01:50:36;97707.44;;;5.75;53.27
27425;BME280;15244;49.088;11.886;2023-02-13T01:55:48;97715.34;;;5.71;53.29
27425;BME280;15244;49.088;11.886;2023-02-13T02:00:51;97716.75;;;5.69;53.67
27425;BME280;15244;49.088;11.886;2023-02-13T02:05:54;97717.03;;;5.67;53.54
27425;BME280;15244;49.088;11.886;2023-02-13T02:11:04;97709.84;;;5.62;53.52
27425;BME280;15244;49.088;11.886;2023-02-13T02:16:07;97714.06;;;5.55;52.58
27425;BME280;15244;49.088;11.886;2023-02-13T02:31:59;97702.72;;;5.39;53.01
27425;BME280;15244;49.088;11.886;2023-02-13T02:42:29;97684.00;;;5.29;53.34
27425;BME280;15244;49.088;11.886;2023-02-13T02:47:50;97683.53;;;5.27;52.55
27425;BME280;15244;49.088;11.886;2023-02-13T02:53:36;97684.44;;;5.22;52.84
27425;BME280;15244;49.088;11.886;2023-02-13T03:04:03;97686.41;;;5.16;52.54
27425;BME280;15244;49.088;11.886;2023-02-13T03:09:35;97694.84;;;5.15;52.31
27425;BME280;15244;49.088;11.886;2023-02-13T03:14:59;97692.13;;;5.15;52.34
27425;BME280;15244;49.088;11.886;2023-02-13T03:20:14;97691.03;;;5.16;51.90
27425;BME280;15244;49.088;11.886;2023-02-13T03:25:56;97696.44;;;5.16;52.51
27425;BME280;15244;49.088;11.886;2023-02-13T03:41:56;97696.84;;;5.09;nan
27425;BME280;15244;49.088;11.886;2023-02-13T03:47:00;97704.13;;;5.09;52.43
27425;BME280;15244;49.088;11.886;2023-02-13T03:52:12;97698.94;;;5.12;52.47
27425;BME280;15244;49.088;11.886;2023-02-13T03:57:19;97701.84;;;5.16;52.50
27425;BME280;15244;49.088;11.886;2023-02-13T04:02:49;97697.94;;;5.22;53.27
27425;BME280;15244;49.088;11.886;2023-02-13T04:07:52;97702.75;;;5.25;52.94
27425;BME280;15244;49.088;11.886;2023-02-13T04:18:22;97690.44;;;5.33;53.23
27425;BME280;15244;49.088;11.886;2023-02-13T04:23:25;97687.63;;;5.38;53.40
27425;BME280;15244;49.088;11.886;2023-02-13T04:28:27;97683.81;;;5.39;53.77
27425;BME280;15244;49.088;11.886;2023-02-13T04:33:39;97691.81;;;5.44;53.20
27425;BME280;15244;49.088;11.886;2023-02-13T04:38:41;97688.53;;;5.47;53.51
27425;BME280;15244;49.088;11.886;2023-02-13T04:43:46;97692.22;;;5.51;53.91
27425;BME280;15244;49.088;11.886;2023-02-13T04:48:52;97688.91;;;5.54;53.65
27425;BME280;15244;49.088;11.886;2023-02-13T04:53:55;97687.19;;;5.58;54.01
27425;BME280;15244;49.088;11.886;2023-02-13T04:59:02;97679.09;;;5.58;53.35
27425;BME280;15244;49.088;11.886;2023-02-13T05:04:03;97681.50;;;5.60;53.79
27425;BME280;15244;49.088;11.886;2023-02-13T05:09:08;97679.59;;;5.60;53.57
27425;BME280;15244;49.088;11.886;2023-02-13T05:14:12;97677.38;;;5.62;53.80
27425;BME280;15244;49.088;11.886;2023-02-13T05:19:17;97686.28;;;5.63;53.19
27425;BME280;15244;49.088;11.886;2023-02-13T05:24:21;97684.69;;;5.62;53.50
27425;BME280;15244;49.088;11.886;2023-02-13T05:29:25;97696.78;;;5.64;53.83
27425;BME280;15244;49.088;11.886;2023-02-13T05:34:38;97697.00;;;5.68;53.56
27425;BME280;15244;49.088;11.886;2023-02-13T05:39:42;97698.31;;;5.71;54.21
27425;BME280;15244;49.088;11.886;2023-02-13T05:44:43;97695.50;;;5.76;54.15
27425;BME280;15244;49.088;11.886;2023-02-13T05:49:47;97705.53;;;5.75;53.39
27425;BME280;15244;49.088;11.886;2023-02-13T05:54:52;97706.31;;;5.76;53.65
27425;BME280;15244;49.088;11.886;2023-02-13T05:59:53;97712.25;;;5.78;54.24
27425;BME280;15244;49.088;11.886;2023-02-13T06:05:00;97715.44;;;5.80;54.16
27425;BME280;15244;49.088;11.886;2023-02-13T06:10:04;97720.53;;;5.81;53.71
27425;BME280;15244;49.088;11.886;2023-02-13T06:15:07;97722.63;;;5.84;54.24
27425;BME280;15244;49.088;11.886;2023-02-13T06:20:09;97728.03;;;5.84;54.32
27425;BME280;15244;49.088;11.886;2023-02-13T06:25:13;97736.66;;;5.86;53.38
27425;BME280;15244;49.088;11.886;2023-02-13T06:30:17;97743.59;;;5.93;54.46
27425;BME280;15244;49.088;11.886;2023-02-13T06:35:19;97748.09;;;5.97;54.01
27425;BME280;15244;49.088;11.886;2023-02-13T06:40:21;97743.69;;;6.01;54.38
27425;BME280;15244;49.088;11.886;2023-02-13T06:45:26;97748.72;;;6.08;54.74
27425;BME280;15244;49.088;11.886;2023-02-13T06:50:28;97759.09;;;6.15;55.54
27425;BME280;15244;49.088;11.886;2023-02-13T06:55:29;97759.00;;;6.20;55.77
27425;BME280;15244;49.088;11.886;2023-02-13T07:00:31;97759.00;;;6.20;54.81
27425;BME280;15244;49.088;11.886;2023-02-13T07:05:38;97758.03;;;6.16;54.39
27425;BME280;15244;49.088;11.886;2023-02-13T07:10:41;97769.66;;;6.16;53.95
27425;BME280;15244;49.088;11.886;2023-02-13T07:15:43;97773.16;;;6.17;54.72
27425;BME280;15244;49.088;11.886;2023-02-13T07:20:45;97765.72;;;6.22;54.95
27425;BME280;15244;49.088;11.886;2023-02-13T07:25:50;97769.13;;;6.28;55.29
27425;BME280;15244;49.088;11.886;2023-02-13T07:30:54;97776.81;;;6.35;55.70
27425;BME280;15244;49.088;11.886;2023-02-13T07:36:04;97777.19;;;6.42;55.92
27425;BME280;15244;49.088;11.886;2023-02-13T07:41:08;97780.59;;;6.47;55.92
27425;BME280;15244;49.088;11.886;2023-02-13T07:46:09;97777.59;;;6.49;55.30
27425;BME280;15244;49.088;11.886;2023-02-13T07:51:13;97773.25;;;6.48;55.04
27425;BME280;15244;49.088;11.886;2023-02-13T07:56:14;97773.25;;;6.48;54.86
27425;BME280;15244;49.088;11.886;2023-02-13T08:01:18;97776.47;;;6.50;54.81
27425;BME280;15244;49.088;11.886;2023-02-13T08:06:20;97774.94;;;6.58;55.50
27425;BME280;15244;49.088;11.886;2023-02-13T08:11:30;97769.38;;;6.63;55.36
27425;BME280;15244;49.088;11.886;2023-02-13T08:16:54;97766.06;;;6.66;55.69
27425;BME280;15244;49.088;11.886;2023-02-13T08:21:58;97774.38;;;6.69;55.29
27425;BME280;15244;49.088;11.886;2023-02-13T08:27:01;97772.81;;;6.68;54.83
27425;BME280;15244;49.088;11.886;2023-02-13T08:32:05;97783.53;;;6.73;55.06
27425;BME280;15244;49.088;11.886;2023-02-13T08:37:09;97779.25;;;6.81;55.48
27425;BME280;15244;49.088;11.886;2023-02-13T08:42:11;97783.44;;;6.87;55.50
27425;BME280;15244;49.088;11.886;2023-02-13T08:47:19;97785.72;;;6.94;55.97
27425;BME280;15244;49.088;11.886;2023-02-13T08:52:26;97796.91;;;7.01;55.98
27425;BME280;15244;49.088;11.886;2023-02-13T08:57:32;97792.19;;;7.07;56.08
27425;BME280;15244;49.088;11.886;2023-02-13T09:02:38;97791.44;;;7.15;56.19
27425;BME280;15244;49.088;11.886;2023-02-13T09:07:43;97794.19;;;7.24;56.37
27425;BME280;15244;49.088;11.886;2023-02-13T09:12:51;97793.75;;;7.30;55.99
27425;BME280;15244;49.088;11.886;2023-02-13T09:17:55;97789.31;;;7.34;56.24
27425;BME280;15244;49.088;11.886;2023-02-13T09:22:57;97791.69;;;7.36;55.94
27425;BME280;15244;49.088;11.886;2023-02-13T09:27:58;97791.69;;;7.36;55.63
27425;BME280;15244;49.088;11.886;2023-02-13T09:33:00;97787.56;;;7.38;55.31
27425;BME280;15244;49.088;11.886;2023-02-13T09:38:05;97786.47;;;7.40;55.39
27425;BME280;15244;49.088;11.886;2023-02-13T09:43:14;97786.63;;;7.43;55.19
27425;BME280;15244;49.088;11.886;2023-02-13T09:48:27;97783.28;;;7.46;55.28
27425;BME280;15244;49.088;11.886;2023-02-13T09:53:32;97792.41;;;7.50;55.02
27425;BME280;15244;49.088;11.886;2023-02-13T09:58:43;97791.78;;;7.53;54.73
27425;BME280;15244;49.088;11.886;2023-02-13T10:04:30;97793.06;;;7.56;55.07
27425;BME280;15244;49.088;11.886;2023-02-13T10:20:19;97800.78;;;7.71;55.02
27425;BME280;15244;49.088;11.886;2023-02-13T10:25:27;97803.38;;;7.76;54.95
27425;BME280;15244;49.088;11.886;2023-02-13T10:30:33;97795.06;;;7.81;54.84
27425;BME280;15244;49.088;11.886;2023-02-13T10:52:25;97798.34;;;8.10;55.18
27425;BME280;15244;49.088;11.886;2023-02-13T10:57:55;97788.63;;;8.17;55.05
27425;BME280;15244;49.088;11.886;2023-02-13T11:03:00;97784.66;;;8.23;54.98
27425;BME280;15244;49.088;11.886;2023-02-13T11:08:02;97786.06;;;8.30;55.04
27425;BME280;15244;49.088;11.886;2023-02-13T11:13:33;97778.56;;;8.35;54.89
27425;BME280;15244;49.088;11.886;2023-02-13T11:18:39;97777.34;;;8.41;54.97
27425;BME280;15244;49.088;11.886;2023-02-13T11:23:45;97783.09;;;8.49;54.96
27425;BME280;15244;49.088;11.886;2023-02-13T11:28:58;97793.97;;;8.57;54.99
27425;BME280;15244;49.088;11.886;2023-02-13T11:34:24;97785.34;;;8.64;54.95
27425;BME280;15244;49.088;11.886;2023-02-13T11:39:26;97790.28;;;8.71;54.78
27425;BME280;15244;49.088;11.886;2023-02-13T11:44:29;97793.00;;;8.79;54.83
27425;BME280;15244;49.088;11.886;2023-02-13T11:49:36;97787.06;;;8.86;54.93
27425;BME280;15244;49.088;11.886;2023-02-13T11:55:00;97784.34;;;8.95;54.85
27425;BME280;15244;49.088;11.886;2023-02-13T12:00:28;97786.91;;;9.00;54.48
27425;BME280;15244;49.088;11.886;2023-02-13T12:05:31;97785.94;;;9.04;54.40
27425;BME280;15244;49.088;11.886;2023-02-13T12:10:36;97778.88;;;9.12;54.28
27425;BME280;15244;49.088;11.886;2023-02-13T12:15:46;97779.81;;;9.16;54.24
27425;BME280;15244;49.088;11.886;2023-02-13T12:26:25;97766.69;;;9.27;53.59
27425;BME280;15244;49.088;11.886;2023-02-13T12:47:25;97743.38;;;9.47;53.40
27425;BME280;15244;49.088;11.886;2023-02-13T13:03:38;97733.13;;;9.52;52.88
27425;BME280;15244;49.088;11.886;2023-02-13T13:29:44;97717.75;;;9.48;51.81
27425;BME280;15244;49.088;11.886;2023-02-13T13:34:50;97723.69;;;9.50;51.27
27425;BME280;15244;49.088;11.886;2023-02-13T13:45:27;97719.16;;;9.54;50.97
27425;BME280;15244;49.088;11.886;2023-02-13T13:50:33;97722.69;;;9.54;51.10
27425;BME280;15244;49.088;11.886;2023-02-13T14:06:18;97717.19;;;9.63;50.52
27425;BME280;15244;49.088;11.886;2023-02-13T14:11:30;97715.28;;;9.64;50.11
27425;BME280;15244;49.088;11.886;2023-02-13T14:21:39;97720.88;;;9.67;50.02
27425;BME280;15244;49.088;11.886;2023-02-13T14:26:48;97721.31;;;9.69;49.89
27425;BME280;15244;49.088;11.886;2023-02-13T14:32:02;97720.53;;;9.69;49.33
27425;BME280;15244;49.088;11.886;2023-02-13T14:42:24;97723.78;;;9.62;49.50
27425;BME280;15244;49.088;11.886;2023-02-13T14:47:31;97710.19;;;9.53;49.45
27425;BME280;15244;49.088;11.886;2023-02-13T14:52:38;97710.06;;;9.50;49.46
27425;BME280;15244;49.088;11.886;2023-02-13T14:57:51;97710.38;;;9.48;49.51
27425;BME280;15244;49.088;11.886;2023-02-13T15:03:19;97696.28;;;9.46;49.22
27425;BME280;15244;49.088;11.886;2023-02-13T15:08:27;97698.22;;;9.46;49.13
27425;BME280;15244;49.088;11.886;2023-02-13T15:13:32;97701.72;;;9.46;49.12
27425;BME280;15244;49.088;11.886;2023-02-13T15:18:46;97713.75;;;9.45;48.78
27425;BME280;15244;49.088;11.886;2023-02-13T15:23:52;97698.53;;;9.44;48.51
27425;BME280;15244;49.088;11.886;2023-02-13T15:29:01;97701.91;;;9.41;48.60
27425;BME280;15244;49.088;11.886;2023-02-13T15:34:21;97698.28;;;9.37;48.80
27425;BME280;15244;49.088;11.886;2023-02-13T15:39:30;97702.28;;;9.31;48.71
27425;BME280;15244;49.088;11.886;2023-02-13T15:44:34;97705.34;;;9.29;48.77
27425;BME280;15244;49.088;11.886;2023-02-13T15:49:41;97706.81;;;9.27;48.63
27425;BME280;15244;49.088;11.886;2023-02-13T15:54:52;97703.91;;;9.23;48.52
27425;BME280;15244;49.088;11.886;2023-02-13T15:59:55;97695.47;;;9.16;48.33
27425;BME280;15244;49.088;11.886;2023-02-13T16:05:02;97699.63;;;9.14;48.37
27425;BME280;15244;49.088;11.886;2023-02-13T16:10:33;97704.13;;;9.09;48.39
27425;BME280;15244;49.088;11.886;2023-02-13T16:15:41;97691.19;;;9.06;48.19
27425;BME280;15244;49.088;11.886;2023-02-13T16:20:47;97687.66;;;9.06;48.47
27425;BME280;15244;49.088;11.886;2023-02-13T16:26:00;97687.16;;;9.04;48.34
27425;BME280;15244;49.088;11.886;2023-02-13T16:31:06;97684.78;;;9.02;48.48
27425;BME280;15244;49.088;11.886;2023-02-13T16:36:28;97695.50;;;8.99;48.47
27425;BME280;15244;49.088;11.886;2023-02-13T16:41:31;97704.66;;;8.94;48.63
27425;BME280;15244;49.088;11.886;2023-02-13T16:46:49;97703.41;;;8.92;48.62
27425;BME280;15244;49.088;11.886;2023-02-13T16:51:55;97698.56;;;8.88;48.73
27425;BME280;15244;49.088;11.886;2023-02-13T16:57:13;97712.53;;;8.87;48.92
27425;BME280;15244;49.088;11.886;2023-02-13T17:02:33;97709.00;;;8.86;48.44
27425;BME280;15244;49.088;11.886;2023-02-13T17:07:40;97713.63;;;8.86;48.80
27425;BME280;15244;49.088;11.886;2023-02-13T17:12:57;97715.72;;;8.80;48.48
27425;BME280;15244;49.088;11.886;2023-02-13T17:17:59;97712.88;;;8.77;48.82
27425;BME280;15244;49.088;11.886;2023-02-13T17:23:03;97725.19;;;8.74;48.57
27425;BME280;15244;49.088;11.886;2023-02-13T17:28:16;97731.72;;;8.73;48.97
27425;BME280;15244;49.088;11.886;2023-02-13T17:33:30;97723.91;;;8.72;48.63
27425;BME280;15244;49.088;11.886;2023-02-13T17:38:36;97728.06;;;8.69;48.75
27425;BME280;15244;49.088;11.886;2023-02-13T17:43:37;97730.63;;;8.65;48.58
27425;BME280;15244;49.088;11.886;2023-02-13T17:48:39;97728.25;;;8.64;48.80
27425;BME280;15244;49.088;11.886;2023-02-13T17:53:43;97727.75;;;8.62;48.36
27425;BME280;15244;49.088;11.886;2023-02-13T17:58:45;97725.03;;;8.62;48.71
27425;BME280;15244;49.088;11.886;2023-02-13T18:03:50;97719.91;;;8.60;48.51
27425;BME280;15244;49.088;11.886;2023-02-13T18:08:54;97714.81;;;8.59;48.85
27425;BME280;15244;49.088;11.886;2023-02-13T18:14:00;97725.50;;;8.55;48.77
27425;BME280;15244;49.088;11.886;2023-02-13T18:19:05;97716.56;;;8.55;48.72
27425;BME280;15244;49.088;11.886;2023-02-13T18:24:07;97714.50;;;8.52;48.80
27425;BME280;15244;49.088;11.886;2023-02-13T18:29:09;97706.34;;;8.52;48.52
27425;BME280;15244;49.088;11.886;2023-02-13T18:34:16;97712.88;;;8.51;48.59
27425;BME280;15244;49.088;11.886;2023-02-13T18:39:21;97705.06;;;8.49;48.65
27425;BME280;15244;49.088;11.886;2023-02-13T18:44:29;97706.16;;;8.48;48.83
27425;BME280;15244;49.088;11.886;2023-02-13T18:49:33;97714.97;;;8.45;48.63
27425;BME280;15244;49.088;11.886;2023-02-13T18:54:36;97723.47;;;8.43;48.64
27425;BME280;15244;49.088;11.886;2023-02-13T18:59:42;97710.78;;;8.39;48.75
27425;BME280;15244;49.088;11.886;2023-02-13T19:04:46;97714.63;;;8.38;48.69
27425;BME280;15244;49.088;11.886;2023-02-13T19:09:48;97715.75;;;8.37;48.71
27425;BME280;15244;49.088;11.886;2023-02-13T19:14:52;97723.09;;;8.36;48.78
27425;BME280;15244;49.088;11.886;2023-02-13T19:19:57;97717.97;;;8.35;48.75
27425;BME280;15244;49.088;11.886;2023-02-13T19:25:05;97715.59;;;8.33;48.79
27425;BME280;15244;49.088;11.886;2023-02-13T19:30:07;97713.50;;;8.30;48.80
27425;BME280;15244;49.088;11.886;2023-02-13T19:35:10;97711.13;;;8.29;48.73
27425;BME280;15244;49.088;11.886;2023-02-13T19:40:15;97707.91;;;8.27;48.69
27425;BME280;15244;49.088;11.886;2023-02-13T19:45:16;97706.94;;;8.22;48.93
27425;BME280;15244;49.088;11.886;2023-02-13T19:50:18;97702.16;;;8.19;49.01
27425;BME280;15244;49.088;11.886;2023-02-13T19:55:21;97704.88;;;8.19;49.04
27425;BME280;15244;49.088;11.886;2023-02-13T20:00:25;97708.38;;;8.11;49.13
27425;BME280;15244;49.088;11.886;2023-02-13T20:05:26;97707.25;;;8.03;49.17
27425;BME280;15244;49.088;11.886;2023-02-13T20:10:28;97716.84;;;8.01;49.64
27425;BME280;15244;49.088;11.886;2023-02-13T20:15:30;97711.72;;;7.99;49.74
27425;BME280;15244;49.088;11.886;2023-02-13T20:20:37;97702.47;;;8.00;49.67
27425;BME280;15244;49.088;11.886;2023-02-13T20:25:39;97711.72;;;7.99;49.99
27425;BME280;15244;49.088;11.886;2023-02-13T20:30:43;97705.81;;;7.97;49.84
27425;BME280;15244;49.088;11.886;2023-02-13T20:35:46;97707.72;;;7.97;50.03
27425;BME280;15244;49.088;11.886;2023-02-13T20:40:48;97706.13;;;7.96;49.99
27425;BME280;15244;49.088;11.886;2023-02-13T20:45:50;97689.50;;;7.97;49.93
27425;BME280;15244;49.088;11.886;2023-02-13T20:50:59;97676.56;;;7.94;49.80
27425;BME280;15244;49.088;11.886;2023-02-13T20:56:03;97680.88;;;7.87;49.81
27425;BME280;15244;49.088;11.886;2023-02-13T21:01:13;97674.66;;;7.77;50.01
27425;BME280;15244;49.088;11.886;2023-02-13T21:06:15;97669.97;;;7.69;49.97
27425;BME280;15244;49.088;11.886;2023-02-13T21:11:18;97680.38;;;7.67;50.37
27425;BME280;15244;49.088;11.886;2023-02-13T21:16:22;97681.00;;;7.64;50.40
27425;BME280;15244;49.088;11.886;2023-02-13T21:21:30;97670.97;;;7.65;50.21
27425;BME280;15244;49.088;11.886;2023-02-13T21:26:35;97666.28;;;7.56;50.23
27425;BME280;15244;49.088;11.886;2023-02-13T21:31:42;97664.38;;;7.48;50.67
27425;BME280;15244;49.088;11.886;2023-02-13T21:36:46;97668.19;;;7.47;50.73
27425;BME280;15244;49.088;11.886;2023-02-13T21:41:52;97672.81;;;7.47;50.83
27425;BME280;15244;49.088;11.886;2023-02-13T21:46:54;97671.53;;;7.44;51.17
27425;BME280;15244;49.088;11.886;2023-02-13T21:51:56;97661.94;;;7.47;50.77
27425;BME280;15244;49.088;11.886;2023-02-13T21:56:57;97664.50;;;7.43;50.92
27425;BME280;15244;49.088;11.886;2023-02-13T22:02:01;97676.00;;;7.40;51.19
27425;BME280;15244;49.088;11.886;2023-02-13T22:07:04;97670.25;;;7.42;51.12
27425;BME280;15244;49.088;11.886;2023-02-13T22:12:11;97670.72;;;7.44;50.91
27425;BME280;15244;49.088;11.886;2023-02-13T22:17:16;97666.44;;;7.43;51.29
27425;BME280;15244;49.088;11.886;2023-02-13T22:22:17;97663.22;;;7.41;50.90
27425;BME280;15244;49.088;11.886;2023-02-13T22:27:28;97669.28;;;7.37;51.10
27425;BME280;15244;49.088;11.886;2023-02-13T22:32:30;97661.16;;;7.37;51.23
27425;BME280;15244;49.088;11.886;2023-02-13T22:37:31;97654.09;;;7.36;51.18
27425;BME280;15244;49.088;11.886;2023-02-13T22:42:36;97662.09;;;7.33;51.06
27425;BME280;15244;49.088;11.886;2023-02-13T22:47:38;97660.97;;;7.34;51.18
27425;BME280;15244;49.088;11.886;2023-02-13T22:52:44;97658.25;;;7.34;51.44
27425;BME280;15244;49.088;11.886;2023-02-13T22:57:48;97656.97;;;7.31;51.02
27425;BME280;15244;49.088;11.886;2023-02-13T23:02:56;97655.69;;;7.29;51.30
27425;BME280;15244;49.088;11.886;2023-02-13T23:08:00;97656.00;;;7.27;51.46
27425;BME280;15244;49.088;11.886;2023-02-13T23:13:02;97655.81;;;7.24;51.06
27425;BME280;15244;49.088;11.886;2023-02-13T23:18:03;97662.38;;;7.23;51.25
27425;BME280;15244;49.088;11.886;2023-02-13T23:23:16;97661.88;;;7.21;51.11
27425;BME280;15244;49.088;11.886;2023-02-13T23:28:18;97663.63;;;7.16;51.29
27425;BME280;15244;49.088;11.886;2023-02-13T23:33:23;97663.16;;;7.14;51.44
27425;BME280;15244;49.088;11.886;2023-02-13T23:38:25;97665.88;;;7.14;51.37
27425;BME280;15244;49.088;11.886;2023-02-13T23:43:29;97653.41;;;7.13;51.60
27425;BME280;15244;49.088;11.886;2023-02-13T23:48:33;97658.31;;;7.11;51.06
27425;BME280;15244;49.088;11.886;2023-02-13T23:53:36;97651.63;;;7.09;51.41
27425;BME280;15244;49.088;11.886;2023-02-13T23:58:37;97651.94;;;7.07;51.33
